Atalandi — SVBA — position and weather

sailwx.info

Track history (hours):
 
Tides and Currents Weather Stations Pressure Air Temp Water Temp Dewpoint Dewpoint Depression Visibility Wind Speed Wind Dir Waves Ship Positions

Atalandi

Last reported at 2016-Jun-19 03:11 UTC. Time now 2016-Jun-29 18:19 UTC.
Position N 27°05' W 079°24'.
Warning: this ship's position is 10 days out of date.

Length 248 m; draft 12.6 m.

Type: Ship. MMSI: 240269000.

Date/timePositionNaut miles runAvg speedWind from/ knotsBaromVisibWave heightAir tempDewpointWater temp
2016-Jun-19 03:11N 27°05' W 079°24'2715.3
2016-Jun-19 01:25N 26°38' W 079°26'1515.3
2016-Jun-19 00:25N 26°23' W 079°28'1315.2
2016-Jun-18 23:33N 26°10' W 079°29'1615.7
2016-Jun-18 22:33N 25°54' W 079°31'  
2016-Jun-16 02:33N 27°20' W 094°07'7113.0
2016-Jun-15 21:06N 28°28' W 094°25'813.6
2016-Jun-15 20:32N 28°36' W 094°25'1312.9
2016-Jun-15 19:30N 28°49' W 094°25'1111.3
2016-Jun-15 18:33N 29°00' W 094°25'1110.0
2016-Jun-15 17:28N 29°11' W 094°29'1010.2
2016-Jun-15 16:30N 29°18' W 094°36'1010.9
2016-Jun-15 15:33N 29°21' W 094°47'1010.1
2016-Jun-15 14:33N 29°31' W 094°53'10 9.5
2016-Jun-15 13:32N 29°39' W 094°58'7 7.1
2016-Jun-15 12:33N 29°44' W 095°03'4 3.6
2016-Jun-15 11:33N 29°44' W 095°08'  
2016-Jun-12 22:10N 29°44' W 095°08'1 1.6
2016-Jun-12 21:33N 29°45' W 095°06'5 5.2
2016-Jun-12 20:33N 29°42' W 095°01'1110.5
2016-Jun-12 19:33N 29°33' W 094°55'1313.1
2016-Jun-12 18:33N 29°22' W 094°48'  
2016-Jun-10 04:06N 29°09' W 094°31'  
Track history (hours):
 
Tides and Currents Weather Stations Pressure Air Temp Water Temp Dewpoint Dewpoint Depression Visibility Wind Speed Wind Dir Waves Ship Positions

Atalandi

Last reported at 2016-Jun-19 03:11 UTC. Time now 2016-Jun-29 18:19 UTC.
Position N 27°05' W 079°24'.
Warning: this ship's position is 10 days out of date.

Length 248 m; draft 12.6 m.

Type: Ship. MMSI: 240269000.

Date/timePositionNaut miles runAvg speedWind from/ knotsBaromVisibWave heightAir tempDewpointWater temp
2016-Jun-19 03:11N 27°05' W 079°24'2715.3
2016-Jun-19 01:25N 26°38' W 079°26'1515.3
2016-Jun-19 00:25N 26°23' W 079°28'1315.2
2016-Jun-18 23:33N 26°10' W 079°29'1615.7
2016-Jun-18 22:33N 25°54' W 079°31'  
2016-Jun-16 02:33N 27°20' W 094°07'7113.0
2016-Jun-15 21:06N 28°28' W 094°25'813.6
2016-Jun-15 20:32N 28°36' W 094°25'1312.9
2016-Jun-15 19:30N 28°49' W 094°25'1111.3
2016-Jun-15 18:33N 29°00' W 094°25'1110.0
2016-Jun-15 17:28N 29°11' W 094°29'1010.2
2016-Jun-15 16:30N 29°18' W 094°36'1010.9
2016-Jun-15 15:33N 29°21' W 094°47'1010.1
2016-Jun-15 14:33N 29°31' W 094°53'10 9.5
2016-Jun-15 13:32N 29°39' W 094°58'7 7.1
2016-Jun-15 12:33N 29°44' W 095°03'4 3.6
2016-Jun-15 11:33N 29°44' W 095°08'  
2016-Jun-12 22:10N 29°44' W 095°08'1 1.6
2016-Jun-12 21:33N 29°45' W 095°06'5 5.2
2016-Jun-12 20:33N 29°42' W 095°01'1110.5
2016-Jun-12 19:33N 29°33' W 094°55'1313.1
2016-Jun-12 18:33N 29°22' W 094°48'  
2016-Jun-10 04:06N 29°09' W 094°31'  

Dump ship's entire track history